createdAt,value
2019-02-14T00:01:38.407Z,18.10
2019-02-14T00:04:08.771Z,17.87
2019-02-14T00:06:39.351Z,18.37
2019-02-14T00:09:09.644Z,18.87
2019-02-14T00:11:40.159Z,21.50
2019-02-14T00:14:10.503Z,22.67
2019-02-14T00:16:41.012Z,18.33
2019-02-14T00:19:11.328Z,30.93
2019-02-14T00:21:41.915Z,22.90
2019-02-14T00:24:12.249Z,19.57
2019-02-14T00:26:42.557Z,25.95
2019-02-14T00:29:12.879Z,22.07
2019-02-14T00:31:43.242Z,22.40
2019-02-14T00:34:13.570Z,23.60
2019-02-14T00:36:44.187Z,20.30
2019-02-14T00:39:14.561Z,18.53
2019-02-14T00:41:45.047Z,20.53
2019-02-14T00:44:16.338Z,19.03
2019-02-14T00:46:46.859Z,20.10
2019-02-14T00:49:17.171Z,18.40
2019-02-14T00:51:47.607Z,16.47
2019-02-14T00:54:17.922Z,18.00
2019-02-14T00:56:48.210Z,18.73
2019-02-14T00:59:18.555Z,18.33
2019-02-14T01:01:48.871Z,16.77
2019-02-14T01:04:19.191Z,17.43
2019-02-14T01:06:49.644Z,21.80
2019-02-14T01:09:20.078Z,16.30
2019-02-14T01:11:50.772Z,23.07
2019-02-14T01:14:21.252Z,20.17
2019-02-14T01:16:51.654Z,18.33
2019-02-14T01:19:21.955Z,20.57
2019-02-14T01:21:52.410Z,19.47
2019-02-14T01:24:22.707Z,23.60
2019-02-14T01:26:53.124Z,18.57
2019-02-14T01:29:23.443Z,19.37
2019-02-14T01:31:53.907Z,18.87
2019-02-14T01:34:24.218Z,18.00
2019-02-14T01:36:54.727Z,17.40
2019-02-14T01:39:25.167Z,17.90
2019-02-14T01:41:55.469Z,18.90
2019-02-14T01:44:25.890Z,20.93
2019-02-14T01:46:56.195Z,20.80
2019-02-14T01:49:26.535Z,26.70
2019-02-14T01:51:57.060Z,19.83
2019-02-14T01:54:27.367Z,25.30
2019-02-14T01:56:57.679Z,21.37
2019-02-14T01:59:28.012Z,28.87
2019-02-14T02:01:58.335Z,25.10
2019-02-14T02:04:28.638Z,21.93
2019-02-14T02:06:59.131Z,21.83
2019-02-14T02:09:29.446Z,20.30
2019-02-14T02:11:59.783Z,21.97
2019-02-14T02:14:30.103Z,23.30
2019-02-14T02:17:00.524Z,27.43
2019-02-14T02:19:31.131Z,23.97
2019-02-14T02:22:01.650Z,25.00
2019-02-14T02:24:32.207Z,22.27
2019-02-14T02:27:02.538Z,21.37
2019-02-14T02:29:32.962Z,18.73
2019-02-14T02:32:03.264Z,24.70
2019-02-14T02:34:33.578Z,24.90
2019-02-14T02:37:04.136Z,22.93
2019-02-14T02:39:35.440Z,28.50
2019-02-14T02:42:06.019Z,26.90
2019-02-14T02:44:36.339Z,26.90
2019-02-14T02:47:06.688Z,25.93
2019-02-14T02:49:37.159Z,22.93
2019-02-14T02:52:07.623Z,25.67
2019-02-14T02:54:37.919Z,20.37
2019-02-14T02:57:08.247Z,22.77
2019-02-14T02:59:38.563Z,19.30
2019-02-14T03:02:09.088Z,20.67
2019-02-14T03:04:39.469Z,20.87
2019-02-14T03:07:10.047Z,19.97
2019-02-14T03:09:40.389Z,26.40
2019-02-14T03:12:11.079Z,21.63
2019-02-14T03:14:41.364Z,20.50
2019-02-14T03:17:12.679Z,20.33
2019-02-14T03:19:42.989Z,20.13
2019-02-14T03:22:13.639Z,18.40
2019-02-14T03:24:43.919Z,19.90
2019-02-14T03:27:14.416Z,22.93
2019-02-14T03:29:44.773Z,22.83
2019-02-14T03:32:15.320Z,20.93
2019-02-14T03:34:45.664Z,22.33
2019-02-14T03:37:17.104Z,24.60
2019-02-14T03:39:47.405Z,20.50
2019-02-14T03:42:17.711Z,21.03
2019-02-14T03:44:48.075Z,21.90
2019-02-14T03:47:18.453Z,20.07
2019-02-14T03:49:48.883Z,20.33
2019-02-14T03:52:19.411Z,20.07
2019-02-14T03:54:49.720Z,22.93
2019-02-14T03:57:20.240Z,18.43
2019-02-14T03:59:50.576Z,18.67
2019-02-14T04:02:20.890Z,17.27
2019-02-14T04:04:51.197Z,17.97
2019-02-14T04:07:21.647Z,19.27
2019-02-14T04:09:51.998Z,19.67
2019-02-14T04:12:22.406Z,17.83
2019-02-14T04:14:52.722Z,19.33
2019-02-14T04:17:23.113Z,20.23
2019-02-14T04:19:53.355Z,19.33
2019-02-14T04:22:24.115Z,19.27
2019-02-14T04:24:54.419Z,20.17
2019-02-14T04:27:24.736Z,19.97
2019-02-14T04:29:55.223Z,21.23
2019-02-14T04:32:25.622Z,19.37
2019-02-14T04:34:56.151Z,20.60
2019-02-14T04:37:27.632Z,24.95
2019-02-14T04:39:58.184Z,21.17
2019-02-14T04:42:28.523Z,21.23
2019-02-14T04:44:59.055Z,19.43
2019-02-14T04:47:29.363Z,19.10
2019-02-14T04:49:59.667Z,17.90
2019-02-14T04:52:30.338Z,16.37
2019-02-14T04:55:00.654Z,19.00
2019-02-14T04:57:32.055Z,18.17
2019-02-14T05:00:02.399Z,18.33
2019-02-14T05:02:32.689Z,18.90
2019-02-14T05:05:03.055Z,18.23
2019-02-14T05:07:33.507Z,16.87
2019-02-14T05:10:04.082Z,18.83
2019-02-14T05:12:34.399Z,16.70
2019-02-14T05:15:04.975Z,18.73
2019-02-14T05:17:35.290Z,18.43
2019-02-14T05:20:06.507Z,17.80
2019-02-14T05:22:37.051Z,17.07
2019-02-14T05:25:07.888Z,16.87
2019-02-14T05:27:38.205Z,16.80
2019-02-14T05:30:10.472Z,16.93
2019-02-14T05:32:40.819Z,17.70
2019-02-14T05:35:11.333Z,17.03
2019-02-14T05:37:42.742Z,15.30
2019-02-14T05:40:13.198Z,18.07
2019-02-14T05:42:43.435Z,17.07
2019-02-14T05:45:14.078Z,17.20
2019-02-14T05:47:44.380Z,16.67
2019-02-14T05:50:14.222Z,19.60
2019-02-14T05:52:44.815Z,18.60
2019-02-14T05:55:15.127Z,16.27
2019-02-14T05:57:45.495Z,17.93
2019-02-14T06:00:16.424Z,19.93
2019-02-14T06:02:46.755Z,20.00
2019-02-14T06:05:17.212Z,20.00
2019-02-14T06:07:47.807Z,17.77
2019-02-14T06:10:18.263Z,18.40
2019-02-14T06:12:48.571Z,18.60
2019-02-14T06:15:19.122Z,17.77
2019-02-14T06:17:50.335Z,20.07
2019-02-14T06:20:20.788Z,21.53
2019-02-14T06:22:51.351Z,21.03
2019-02-14T06:25:21.633Z,23.33
2019-02-14T06:27:51.975Z,21.43
2019-02-14T06:30:22.291Z,22.27
2019-02-14T06:32:52.581Z,22.90
2019-02-14T06:35:22.971Z,20.90
2019-02-14T06:37:53.671Z,22.80
2019-02-14T06:40:24.186Z,21.70
2019-02-14T06:42:54.507Z,21.40
2019-02-14T06:45:25.043Z,22.30
2019-02-14T06:47:55.447Z,21.47
2019-02-14T06:50:34.436Z,22.63
2019-02-14T06:52:57.930Z,19.00
2019-02-14T06:55:28.358Z,21.67
2019-02-14T06:57:58.650Z,19.80
2019-02-14T07:00:29.164Z,21.73
2019-02-14T07:02:59.471Z,19.93
2019-02-14T07:05:29.791Z,19.87
2019-02-14T07:08:00.483Z,19.73
2019-02-14T07:10:30.823Z,20.80
2019-02-14T07:13:01.283Z,19.67
2019-02-14T07:15:31.603Z,21.43
2019-02-14T07:18:01.900Z,18.23
2019-02-14T07:20:32.251Z,19.37
2019-02-14T07:23:02.721Z,19.87
2019-02-14T07:25:33.101Z,23.52
2019-02-14T07:28:03.431Z,21.07
2019-02-14T07:30:33.814Z,20.57
2019-02-14T07:33:04.155Z,18.73
2019-02-14T07:35:34.499Z,20.33
2019-02-14T07:38:05.187Z,19.27
2019-02-14T07:40:35.524Z,19.50
2019-02-14T07:43:05.840Z,20.60
2019-02-14T07:45:36.328Z,20.63
2019-02-14T07:48:06.667Z,19.60
2019-02-14T07:50:37.181Z,19.57
2019-02-14T07:53:07.759Z,18.77
2019-02-14T07:55:38.266Z,20.80
2019-02-14T07:58:08.593Z,20.77
2019-02-14T08:00:39.156Z,19.83
2019-02-14T08:03:09.547Z,19.50
2019-02-14T08:05:39.950Z,18.03
2019-02-14T08:08:10.487Z,19.30
2019-02-14T08:10:41.007Z,18.20
2019-02-14T08:13:11.359Z,16.03
2019-02-14T08:15:41.726Z,16.97
2019-02-14T08:18:12.254Z,17.80
2019-02-14T08:20:43.675Z,18.23
2019-02-14T08:23:14.436Z,18.13
2019-02-14T08:25:44.760Z,18.27
2019-02-14T08:28:15.265Z,17.33
2019-02-14T08:30:45.672Z,16.03
2019-02-14T08:33:16.020Z,17.27
2019-02-14T08:35:46.339Z,18.97
2019-02-14T08:38:17.099Z,16.87
2019-02-14T08:40:47.476Z,17.93
2019-02-14T08:43:18.032Z,15.93
2019-02-14T08:45:48.453Z,17.60
2019-02-14T08:48:19.060Z,16.93
2019-02-14T08:50:49.468Z,17.43
2019-02-14T08:53:20.295Z,18.07
2019-02-14T08:55:50.636Z,17.10
2019-02-14T08:58:21.237Z,16.83
2019-02-14T09:00:51.596Z,18.47
2019-02-14T09:03:21.979Z,14.87
2019-02-14T09:05:52.339Z,15.97
2019-02-14T09:08:22.903Z,17.10
2019-02-14T09:10:53.250Z,13.57
2019-02-14T09:13:23.627Z,14.47
2019-02-14T09:15:53.968Z,14.87
2019-02-14T09:18:24.339Z,13.60
2019-02-14T09:20:54.694Z,13.60
2019-02-14T09:23:25.481Z,13.03
2019-02-14T09:25:55.780Z,14.97
2019-02-14T09:28:26.465Z,13.40
2019-02-14T09:30:56.807Z,14.67
2019-02-14T09:33:27.345Z,15.70
2019-02-14T09:35:57.656Z,13.80
2019-02-14T09:38:28.304Z,13.57
2019-02-14T09:40:58.647Z,14.50
2019-02-14T09:43:30.335Z,15.13
2019-02-14T09:46:00.668Z,13.77
2019-02-14T09:48:31.213Z,14.63
2019-02-14T09:51:01.633Z,14.07
2019-02-14T09:53:32.195Z,14.07
2019-02-14T09:56:02.626Z,14.77
2019-02-14T09:58:33.203Z,14.40
2019-02-14T10:01:03.620Z,15.13
2019-02-14T10:03:34.244Z,14.37
2019-02-14T10:06:04.588Z,14.17
2019-02-14T10:08:35.217Z,14.40
2019-02-14T10:11:05.567Z,15.10
2019-02-14T10:13:36.096Z,13.83
2019-02-14T10:16:06.414Z,14.80
2019-02-14T10:18:37.175Z,13.67
2019-02-14T10:21:08.450Z,13.67
2019-02-14T10:23:39.343Z,13.13
2019-02-14T10:26:09.639Z,11.90
2019-02-14T10:28:40.241Z,13.07
2019-02-14T10:31:11.567Z,12.13
2019-02-14T10:33:42.139Z,11.17
2019-02-14T10:36:12.566Z,11.60
2019-02-14T10:38:43.083Z,11.53
2019-02-14T10:41:13.452Z,10.80
2019-02-14T10:43:48.868Z,10.20
2019-02-14T10:46:15.910Z,10.43
2019-02-14T10:48:46.455Z,10.00
2019-02-14T10:51:16.779Z,8.67
2019-02-14T10:53:47.635Z,9.53
2019-02-14T10:56:17.989Z,9.10
2019-02-14T10:58:48.487Z,9.43
2019-02-14T11:01:18.887Z,9.53
2019-02-14T11:03:49.573Z,8.83
2019-02-14T11:06:19.930Z,8.73
2019-02-14T11:08:50.523Z,9.47
2019-02-14T11:11:20.883Z,9.87
2019-02-14T11:13:51.285Z,10.13
2019-02-14T11:16:21.639Z,11.60
2019-02-14T11:18:52.146Z,11.93
2019-02-14T11:21:22.477Z,12.63
2019-02-14T11:23:53.240Z,11.60
2019-02-14T11:26:23.666Z,12.03
2019-02-14T11:28:54.026Z,12.73
2019-02-14T11:31:24.375Z,13.03
2019-02-14T11:33:54.686Z,14.30
2019-02-14T11:36:25.223Z,15.77
2019-02-14T11:38:55.767Z,14.70
2019-02-14T11:41:26.259Z,15.70
2019-02-14T11:43:56.607Z,16.90
2019-02-14T11:46:27.071Z,15.90
2019-02-14T11:48:57.403Z,16.17
2019-02-14T11:51:27.711Z,17.17
2019-02-14T11:53:58.535Z,17.00
2019-02-14T11:56:28.931Z,14.87
2019-02-14T11:58:59.263Z,17.80
2019-02-14T12:01:29.587Z,18.43
2019-02-14T12:03:59.935Z,17.40
2019-02-14T12:06:30.286Z,17.63
2019-02-14T12:09:00.845Z,16.23
2019-02-14T12:11:31.174Z,17.67
2019-02-14T12:14:01.479Z,18.50
2019-02-14T12:16:32.087Z,15.47
2019-02-14T12:19:02.382Z,18.47
2019-02-14T12:21:32.687Z,18.43
2019-02-14T12:24:03.347Z,19.47
2019-02-14T12:26:33.663Z,18.93
2019-02-14T12:29:04.004Z,15.53
2019-02-14T12:31:34.339Z,18.50
2019-02-14T12:34:04.667Z,18.63
2019-02-14T12:36:35.008Z,20.77
2019-02-14T12:39:09.801Z,20.40
2019-02-14T12:41:38.398Z,19.43
2019-02-14T12:44:08.743Z,20.73
2019-02-14T12:46:39.303Z,19.90
2019-02-14T12:49:10.615Z,19.10
2019-02-14T12:51:41.069Z,19.93
2019-02-14T12:54:11.575Z,20.97
2019-02-14T12:56:42.023Z,20.93
2019-02-14T12:59:13.287Z,20.43
2019-02-14T13:01:43.779Z,20.70
2019-02-14T13:04:14.063Z,20.87
2019-02-14T13:06:44.472Z,20.90
2019-02-14T13:09:20.213Z,20.03
2019-02-14T13:11:47.338Z,20.93
2019-02-14T13:14:17.692Z,20.27
2019-02-14T13:16:48.028Z,22.47
2019-02-14T13:19:18.571Z,20.27
2019-02-14T13:21:48.875Z,21.43
2019-02-14T13:24:19.823Z,22.33
2019-02-14T13:26:50.086Z,22.23
2019-02-14T13:29:20.379Z,21.20
2019-02-14T13:31:50.895Z,23.07
2019-02-14T13:34:21.282Z,21.90
2019-02-14T13:37:01.032Z,21.77
2019-02-14T13:39:29.697Z,21.97
2019-02-14T13:41:55.767Z,21.67
2019-02-14T13:44:26.236Z,20.83
2019-02-14T13:46:56.594Z,22.73
2019-02-14T13:49:27.047Z,19.47
2019-02-14T13:51:57.376Z,21.60
2019-02-14T13:54:28.042Z,21.90
2019-02-14T13:56:58.411Z,21.43
2019-02-14T13:59:28.709Z,20.80
2019-02-14T14:01:59.087Z,21.30
2019-02-14T14:04:29.411Z,22.27
2019-02-14T14:06:59.975Z,21.87
2019-02-14T14:09:38.418Z,21.37
2019-02-14T14:12:02.360Z,21.10
2019-02-14T14:14:32.692Z,22.37
2019-02-14T14:17:03.263Z,21.50
2019-02-14T14:19:33.587Z,21.70
2019-02-14T14:22:04.140Z,22.33
2019-02-14T14:24:34.609Z,23.70
2019-02-14T14:27:05.126Z,22.50
2019-02-14T14:29:35.439Z,25.85
2019-02-14T14:32:06.635Z,24.37
2019-02-14T14:34:36.926Z,23.80
2019-02-14T14:37:07.272Z,23.63
2019-02-14T14:39:37.714Z,24.67
2019-02-14T14:42:10.775Z,24.60
2019-02-14T14:44:46.233Z,24.47
2019-02-14T14:47:19.001Z,24.10
2019-02-14T14:49:49.280Z,25.10
2019-02-14T14:52:19.571Z,25.03
2019-02-14T14:54:50.091Z,24.37
2019-02-14T14:57:20.401Z,24.43
2019-02-14T14:59:50.704Z,24.73
2019-02-14T15:02:21.030Z,25.73
2019-02-14T15:04:51.347Z,23.67
2019-02-14T15:07:21.659Z,22.97
2019-02-14T15:09:57.461Z,24.10
2019-02-14T15:12:24.128Z,24.10
2019-02-14T15:14:54.442Z,25.43
2019-02-14T15:17:24.806Z,25.10
2019-02-14T15:19:55.247Z,25.93
2019-02-14T15:22:25.591Z,24.87
2019-02-14T15:24:56.319Z,22.50
2019-02-14T15:27:26.643Z,23.70
2019-02-14T15:29:57.159Z,24.20
2019-02-14T15:32:27.535Z,25.70
2019-02-14T15:34:58.098Z,24.67
2019-02-14T15:37:28.495Z,25.57
2019-02-14T15:40:08.576Z,26.57
2019-02-14T15:42:31.005Z,25.43
2019-02-14T15:45:01.375Z,28.47
2019-02-14T15:47:31.708Z,26.70
2019-02-14T15:50:03.859Z,28.23
2019-02-14T15:52:34.148Z,27.87
2019-02-14T15:55:05.031Z,26.47
2019-02-14T15:57:35.349Z,27.37
2019-02-14T16:00:07.932Z,28.03
2019-02-14T16:02:37.930Z,25.63
2019-02-14T16:05:08.320Z,27.90
2019-02-14T16:07:40.904Z,28.60
2019-02-14T16:10:18.152Z,28.73
2019-02-14T16:12:45.626Z,29.93
2019-02-14T16:15:15.429Z,30.10
2019-02-14T16:17:45.740Z,29.60
2019-02-14T16:20:17.495Z,29.83
2019-02-14T16:22:48.087Z,29.07
2019-02-14T16:25:18.558Z,30.67
2019-02-14T16:27:50.447Z,31.90
2019-02-14T16:30:21.084Z,28.60
2019-02-14T16:32:51.391Z,30.97
2019-02-14T16:35:21.698Z,29.77
2019-02-14T16:37:52.068Z,31.43
2019-02-14T16:40:27.890Z,33.97
2019-02-14T16:42:54.711Z,31.60
2019-02-14T16:45:25.003Z,34.90
2019-02-14T16:47:55.513Z,31.67
2019-02-14T16:50:25.810Z,31.37
2019-02-14T16:52:56.354Z,31.13
2019-02-14T16:55:26.886Z,30.27
2019-02-14T16:57:57.379Z,30.10
2019-02-14T17:00:27.683Z,30.70
2019-02-14T17:02:58.257Z,31.60
2019-02-14T17:05:28.539Z,31.97
2019-02-14T17:07:58.908Z,28.43
2019-02-14T17:10:36.643Z,32.30
2019-02-14T17:13:02.530Z,29.33
2019-02-14T17:15:32.811Z,29.97
2019-02-14T17:18:03.316Z,30.03
2019-02-14T17:20:33.625Z,38.53
2019-02-14T17:23:04.249Z,30.97
2019-02-14T17:25:35.689Z,27.37
2019-02-14T17:28:06.091Z,28.47
2019-02-14T17:30:36.384Z,28.53
2019-02-14T17:33:07.036Z,27.73
2019-02-14T17:35:37.331Z,27.67
2019-02-14T17:38:07.759Z,29.37
2019-02-14T17:40:45.752Z,27.70
2019-02-14T17:43:10.416Z,27.90
2019-02-14T17:45:40.899Z,26.67
2019-02-14T17:48:11.198Z,26.93
2019-02-14T17:50:41.497Z,25.43
2019-02-14T17:53:12.017Z,27.77
2019-02-14T17:55:42.577Z,26.93
2019-02-14T17:58:12.886Z,28.33
2019-02-14T18:00:43.193Z,29.20
2019-02-14T18:03:13.539Z,27.17
2019-02-14T18:05:43.931Z,27.57
2019-02-14T18:08:14.215Z,29.00
2019-02-14T18:10:44.887Z,28.00
2019-02-14T18:13:15.255Z,27.97
2019-02-14T18:15:45.535Z,28.07
2019-02-14T18:18:15.838Z,28.60
2019-02-14T18:20:46.158Z,29.13
2019-02-14T18:23:16.507Z,30.10
2019-02-14T18:25:47.239Z,31.40
2019-02-14T18:28:17.536Z,31.53
2019-02-14T18:30:48.092Z,31.27
2019-02-14T18:33:19.382Z,32.93
2019-02-14T18:35:49.707Z,33.03
2019-02-14T18:38:20.036Z,34.33
2019-02-14T18:40:50.787Z,32.57
2019-02-14T18:43:21.089Z,31.63
2019-02-14T18:45:51.411Z,34.50
2019-02-14T18:48:21.763Z,33.63
2019-02-14T18:50:52.087Z,34.27
2019-02-14T18:53:22.423Z,33.23
2019-02-14T18:55:53.194Z,33.27
2019-02-14T18:58:26.568Z,33.73
2019-02-14T19:00:55.851Z,34.40
2019-02-14T19:03:26.242Z,33.20
2019-02-14T19:05:56.609Z,36.83
2019-02-14T19:08:27.098Z,37.30
2019-02-14T19:10:57.632Z,36.90
2019-02-14T19:13:28.039Z,34.23
2019-02-14T19:15:58.327Z,33.73
2019-02-14T19:18:28.661Z,34.43
2019-02-14T19:20:59.022Z,35.20
2019-02-14T19:23:29.390Z,37.73
2019-02-14T19:25:59.884Z,35.93
2019-02-14T19:28:30.200Z,34.37
2019-02-14T19:31:00.583Z,34.83
2019-02-14T19:33:30.923Z,33.30
2019-02-14T19:36:01.215Z,31.07
2019-02-14T19:38:31.531Z,33.90
2019-02-14T19:41:02.180Z,31.00
2019-02-14T19:43:32.475Z,31.13
2019-02-14T19:46:02.998Z,34.20
2019-02-14T19:48:33.323Z,31.07
2019-02-14T19:51:03.633Z,32.70
2019-02-14T19:53:33.987Z,36.70
2019-02-14T19:56:04.506Z,29.97
2019-02-14T19:58:34.895Z,30.80
2019-02-14T20:01:05.405Z,31.33
2019-02-14T20:03:35.934Z,31.13
2019-02-14T20:06:07.218Z,29.83
2019-02-14T20:08:37.554Z,31.83
2019-02-14T20:11:08.022Z,29.07
2019-02-14T20:13:39.427Z,29.57
2019-02-14T20:16:09.755Z,32.77
2019-02-14T20:18:40.239Z,30.33
2019-02-14T20:21:10.531Z,31.33
2019-02-14T20:23:41.063Z,31.63
2019-02-14T20:26:11.506Z,32.43
2019-02-14T20:28:42.023Z,35.57
2019-02-14T20:31:12.329Z,30.23
2019-02-14T20:33:42.675Z,31.73
2019-02-14T20:36:13.027Z,31.77
2019-02-14T20:38:43.351Z,35.50
2019-02-14T20:41:14.046Z,36.33
2019-02-14T20:43:44.347Z,41.57
2019-02-14T20:46:14.700Z,38.73
2019-02-14T20:48:45.027Z,31.83
2019-02-14T20:51:15.347Z,36.83
2019-02-14T20:53:45.653Z,36.97
2019-02-14T20:56:16.318Z,38.57
2019-02-14T20:58:46.631Z,32.63
2019-02-14T21:01:17.103Z,32.07
2019-02-14T21:03:47.426Z,33.00
2019-02-14T21:06:18.007Z,37.77
2019-02-14T21:08:48.303Z,33.70
2019-02-14T21:11:18.747Z,33.57
2019-02-14T21:13:49.159Z,35.53
2019-02-14T21:16:19.523Z,33.07
2019-02-14T21:18:50.050Z,33.37
2019-02-14T21:21:20.349Z,42.80
2019-02-14T21:23:50.663Z,34.30
2019-02-14T21:26:21.411Z,35.00
2019-02-14T21:28:51.723Z,32.77
2019-02-14T21:31:22.274Z,31.93
2019-02-14T21:33:52.575Z,33.93
2019-02-14T21:36:23.090Z,32.13
2019-02-14T21:38:53.447Z,33.37
2019-02-14T21:41:24.043Z,33.30
2019-02-14T21:43:55.455Z,32.43
2019-02-14T21:46:25.959Z,35.00
2019-02-14T21:48:56.253Z,33.60
2019-02-14T21:51:26.563Z,34.27
2019-02-14T21:53:57.010Z,33.43
2019-02-14T21:56:27.501Z,33.17
2019-02-14T21:58:57.912Z,35.50
2019-02-14T22:01:28.192Z,33.33
2019-02-14T22:03:58.493Z,34.23
2019-02-14T22:06:29.027Z,32.80
2019-02-14T22:09:00.353Z,33.53
2019-02-14T22:11:34.334Z,35.00
2019-02-14T22:14:02.927Z,35.20
2019-02-14T22:16:33.470Z,32.60
2019-02-14T22:19:03.753Z,33.00
2019-02-14T22:21:34.181Z,35.20
2019-02-14T22:24:04.515Z,34.43
2019-02-14T22:26:35.204Z,33.23
2019-02-14T22:29:05.536Z,33.60
2019-02-14T22:31:36.064Z,30.53
2019-02-14T22:34:06.375Z,34.27
2019-02-14T22:36:36.705Z,34.13
2019-02-14T22:39:07.958Z,36.40
2019-02-14T22:41:40.075Z,33.47
2019-02-14T22:44:10.568Z,46.58
2019-02-14T22:46:40.871Z,36.97
2019-02-14T22:49:11.228Z,37.13
2019-02-14T22:51:41.535Z,37.30
2019-02-14T22:54:12.059Z,32.63
2019-02-14T22:56:42.746Z,33.80
2019-02-14T22:59:13.169Z,36.97
2019-02-14T23:01:44.366Z,34.73
2019-02-14T23:04:14.706Z,34.47
2019-02-14T23:06:44.991Z,34.00
2019-02-14T23:09:16.045Z,35.90
2019-02-14T23:11:46.581Z,36.13
2019-02-14T23:14:17.845Z,35.47
2019-02-14T23:16:48.187Z,33.57
2019-02-14T23:19:18.483Z,38.20
2019-02-14T23:21:49.000Z,35.10
2019-02-14T23:24:19.323Z,36.87
2019-02-14T23:26:50.655Z,37.23
2019-02-14T23:29:20.974Z,40.70
2019-02-14T23:31:51.539Z,36.97
2019-02-14T23:34:21.869Z,38.47
2019-02-14T23:36:52.332Z,37.70
2019-02-14T23:39:22.659Z,34.63
2019-02-14T23:41:53.143Z,40.90
2019-02-14T23:44:23.487Z,35.53
2019-02-14T23:46:53.790Z,39.30
2019-02-14T23:49:24.267Z,37.80
2019-02-14T23:51:55.572Z,34.30
2019-02-14T23:54:25.991Z,39.03
2019-02-14T23:56:56.435Z,38.33
2019-02-14T23:59:26.843Z,42.43
